KRDM/RDM METAR and TAF weather

Enter ICAO airport designator
Station Type Date Time Source
KRDM METAR 2019/04/18 09:56 UTC NOAA

KRDM 180956Z AUTO 00000KT 10SM CLR 06/01 A3030 RMK AO2 SLP256 T00560011 $


Station Type Date Time Source
KRDM Decoded METAR 2019/04/18 09:56 UTC NOAA

REDMOND ROBERTS FIELD, OR, United States (KRDM) 44-15N 121-08W
Apr 18, 2019 - 05:56 AM EDT / 2019.04.18 0956 UTC
Wind: Calm:0
Visibility: 10 mile(s):0
Sky conditions: clear
Temperature: 42.1 F (5.6 C)
Dew Point: 34.0 F (1.1 C)
Relative Humidity: 72%
Pressure (altimeter): 30.3 in. Hg (1026 hPa)
ob: KRDM 180956Z AUTO 00000KT 10SM CLR 06/01 A3030 RMK AO2 SLP256 T00560011
cycle: 10

Station Type Date Time Source
KRDM TAF 2019/04/18 06:24 UTC NOAA

TAF KRDM 180520Z 1806/1906 31008KT P6SM BKN250
FM180900 VRB04KT P6SM OVC250
FM181800 VRB03KT P6SM BKN250
FM190300 32006KT P6SM OVC250

Example: see airport list